Time;durP1;ratioP1;P1;durP2;ratioP2;P2;SDS_P1;SDS_P2;PMS_P1;PMS_P2;Temp;Humidity;BMP_temperature;BMP_pressure;BME280_temperature;BME280_humidity;BME280_pressure;Samples;Min_cycle;Max_cycle;Signal;HPM_P1;HPM_P2
2022/05/08 00:01:35;;;;;;;5.25;3.22;;;;;;;14.98;47.34;100873.70;1774378;81;21013;-55
2022/05/08 00:04:03;;;;;;;3.80;2.50;;;;;;;15.01;46.61;100875.50;1774390;81;20988;-55
2022/05/08 00:06:32;;;;;;;6.75;2.70;;;;;;;15.03;45.69;100870.61;1774347;81;21028;-56
2022/05/08 00:09:02;;;;;;;5.83;3.00;;;;;;;15.04;45.84;100868.70;1774209;81;21500;-55
2022/05/08 00:11:31;;;;;;;5.25;2.40;;;;;;;15.07;44.77;100871.03;1774343;81;21005;-56
2022/05/08 00:14:00;;;;;;;4.78;2.50;;;;;;;15.09;43.92;100871.13;1774282;81;21400;-56
2022/05/08 00:16:29;;;;;;;7.42;2.33;;;;;;;15.10;44.09;100864.55;1774231;81;20984;-57
2022/05/08 00:18:58;;;;;;;4.50;2.02;;;;;;;15.12;43.03;100862.95;1774622;81;21000;-55
2022/05/08 00:21:28;;;;;;;7.12;2.37;;;;;;;15.15;42.64;100858.38;1774366;80;21016;-56
2022/05/08 00:23:57;;;;;;;4.85;2.40;;;;;;;15.18;42.53;100857.95;1774331;80;21031;-55
2022/05/08 00:26:27;;;;;;;5.10;2.12;;;;;;;15.20;42.17;100857.20;1774190;79;21036;-56
2022/05/08 00:28:57;;;;;;;4.42;2.02;;;;;;;15.21;41.82;100854.75;1774628;80;21012;-57
2022/05/08 00:31:26;;;;;;;4.33;2.00;;;;;;;15.22;41.55;100859.20;1773971;81;21040;-56
2022/05/08 00:33:55;;;;;;;4.17;2.00;;;;;;;15.24;41.41;100855.70;1774232;81;21019;-56
2022/05/08 00:36:24;;;;;;;8.95;2.20;;;;;;;15.25;41.14;100853.25;1774336;81;21001;-56
2022/05/08 00:38:55;;;;;;;6.78;2.20;;;;;;;15.25;40.91;100858.77;1774505;80;21071;-56
2022/05/08 00:41:24;;;;;;;2.95;2.00;;;;;;;15.26;40.81;100858.24;1774678;81;21047;-56
2022/05/08 00:43:53;;;;;;;7.17;2.27;;;;;;;15.25;41.05;100851.88;1763805;81;21067;-57
2022/05/08 00:46:24;;;;;;;4.95;2.15;;;;;;;15.23;40.85;100858.14;1774446;80;21016;-57
2022/05/08 00:48:53;;;;;;;6.42;2.30;;;;;;;15.22;40.89;100853.69;1774503;81;21091;-56
2022/05/08 00:51:21;;;;;;;4.50;2.00;;;;;;;15.22;40.94;100850.39;1774376;81;21462;-56
2022/05/08 00:53:53;;;;;;;3.98;2.10;;;;;;;15.22;41.02;100848.16;1774493;79;21455;-56
2022/05/08 00:56:22;;;;;;;4.35;1.90;;;;;;;15.22;41.18;100850.92;1774493;81;20976;-55
2022/05/08 00:58:52;;;;;;;4.20;2.00;;;;;;;15.21;41.16;100843.70;1774313;80;21110;-57
2022/05/08 01:01:21;;;;;;;6.62;2.08;;;;;;;15.19;41.38;100845.30;1774322;81;20997;-57
2022/05/08 01:03:50;;;;;;;5.05;1.90;;;;;;;15.17;41.29;100841.06;1774624;81;21031;-56
2022/05/08 01:06:19;;;;;;;5.85;2.15;;;;;;;15.16;41.16;100837.99;1774268;81;20996;-56
2022/05/08 01:08:50;;;;;;;6.08;2.10;;;;;;;15.16;41.08;100837.99;1774621;81;21036;-55
2022/05/08 01:11:19;;;;;;;4.72;2.02;;;;;;;15.14;40.95;100835.45;1774246;81;21023;-56
2022/05/08 01:13:50;;;;;;;5.17;2.08;;;;;;;15.14;41.00;100842.88;1774446;81;21012;-56
2022/05/08 01:16:22;;;;;;;3.80;2.30;;;;;;;15.11;41.25;100837.27;1774680;81;21496;-57
2022/05/08 01:18:51;;;;;;;4.42;2.15;;;;;;;15.10;41.46;100840.23;1774449;81;21024;-55
2022/05/08 01:21:28;;;;;;;6.80;1.90;;;;;;;15.05;41.14;100834.52;1774417;81;21056;-56
2022/05/08 01:23:57;;;;;;;4.10;1.82;;;;;;;15.02;41.21;100828.05;1773853;80;21091;-56
2022/05/08 01:26:26;;;;;;;4.22;1.82;;;;;;;14.97;41.11;100829.23;1774384;81;21035;-56
2022/05/08 01:28:54;;;;;;;4.20;2.00;;;;;;;14.95;41.20;100824.44;1774502;81;20984;-55
2022/05/08 01:31:25;;;;;;;4.85;2.40;;;;;;;14.94;41.57;100833.77;1774563;81;21433;-55
2022/05/08 01:33:54;;;;;;;3.35;1.90;;;;;;;14.90;41.50;100830.06;1774600;81;21048;-55
2022/05/08 01:36:23;;;;;;;4.92;1.90;;;;;;;14.90;41.77;100827.84;1774703;81;21107;-57
2022/05/08 01:38:56;;;;;;;4.35;2.00;;;;;;;14.85;42.08;100828.48;1774550;81;21036;-54
2022/05/08 01:41:26;;;;;;;5.80;2.25;;;;;;;14.82;42.18;100823.40;1774536;79;21051;-56
2022/05/08 01:43:57;;;;;;;3.85;1.85;;;;;;;14.79;42.41;100828.50;1774490;80;21080;-56
2022/05/08 01:46:26;;;;;;;4.53;2.00;;;;;;;14.73;42.58;100825.22;1774452;81;21028;-58
2022/05/08 01:48:55;;;;;;;4.33;2.00;;;;;;;14.70;42.48;100820.98;1774420;81;21071;-56
2022/05/08 01:51:24;;;;;;;7.45;2.10;;;;;;;14.64;42.64;100817.70;1774908;81;21028;-56
2022/05/08 01:53:53;;;;;;;4.67;1.98;;;;;;;14.60;42.62;100820.57;1774643;80;21020;-56
2022/05/08 01:56:22;;;;;;;4.47;1.70;;;;;;;14.58;42.57;100822.69;1774640;81;20968;-55
2022/05/08 01:58:52;;;;;;;8.65;1.90;;;;;;;14.56;42.31;100822.91;1779636;80;21007;-56
2022/05/08 02:01:21;;;;;;;7.53;3.42;;;;;;;14.55;42.77;100820.36;1788375;80;21024;-56
2022/05/08 02:03:52;;;;;;;6.40;2.47;;;;;;;14.51;43.14;100821.86;1788421;80;21035;-56
2022/05/08 02:06:21;;;;;;;6.22;2.22;;;;;;;14.46;43.29;100821.64;1788387;80;20995;-56
2022/05/08 02:08:50;;;;;;;3.80;2.00;;;;;;;14.41;43.22;100820.88;1788403;79;20976;-55
2022/05/08 02:11:19;;;;;;;3.17;1.85;;;;;;;14.38;43.07;100821.83;1788377;80;20998;-56
2022/05/08 02:13:47;;;;;;;5.75;2.10;;;;;;;14.36;43.41;100825.33;1788167;80;21078;-55
2022/05/08 02:16:16;;;;;;;6.90;1.87;;;;;;;14.33;43.69;100830.73;1788457;80;21036;-55
2022/05/08 02:18:45;;;;;;;3.35;1.90;;;;;;;14.26;44.06;100831.23;1788117;80;21015;-56
2022/05/08 02:21:15;;;;;;;3.27;1.80;;;;;;;14.21;44.36;100835.15;1788456;80;20995;-57
2022/05/08 02:23:43;;;;;;;5.15;2.12;;;;;;;14.15;44.56;100835.47;1788167;80;21063;-56
2022/05/08 02:26:13;;;;;;;12.70;3.02;;;;;;;14.05;44.45;100835.03;1788245;80;21478;-55
2022/05/08 02:28:42;;;;;;;5.42;2.45;;;;;;;14.01;44.40;100832.38;1788383;80;21396;-55
2022/05/08 02:31:12;;;;;;;3.80;2.08;;;;;;;14.01;44.15;100831.53;1788371;80;21432;-54
2022/05/08 02:33:42;;;;;;;5.78;1.90;;;;;;;14.03;44.00;100837.14;1788285;80;21062;-56
2022/05/08 02:36:13;;;;;;;5.92;2.15;;;;;;;14.01;44.80;100837.88;1788207;80;21463;-56
2022/05/08 02:38:42;;;;;;;5.65;2.00;;;;;;;13.92;45.12;100839.14;1788101;80;21035;-56
2022/05/08 02:41:10;;;;;;;8.90;2.50;;;;;;;13.84;45.18;100844.31;1788445;80;21024;-56
2022/05/08 02:43:40;;;;;;;6.30;2.40;;;;;;;13.81;44.67;100848.02;1788447;80;21023;-56
2022/05/08 02:46:09;;;;;;;4.30;2.02;;;;;;;13.84;44.84;100848.97;1788156;80;21428;-56
2022/05/08 02:48:39;;;;;;;3.92;2.08;;;;;;;13.82;45.27;100851.94;1788160;80;21027;-55
2022/05/08 02:51:08;;;;;;;5.50;1.87;;;;;;;13.77;45.51;100852.23;1788214;80;21032;-55
2022/05/08 02:53:37;;;;;;;5.45;1.80;;;;;;;13.69;45.93;100849.15;1787846;80;21054;-56
2022/05/08 02:58:49;;;;;;;3.60;1.90;;;;;;;13.59;46.68;100846.75;1757209;80;21063;-56
2022/05/08 03:01:18;;;;;;;8.45;2.40;;;;;;;13.54;47.00;100856.16;1788027;80;21016;-58
2022/05/08 03:03:47;;;;;;;3.25;2.10;;;;;;;13.48;47.20;100854.23;1788018;80;21015;-57
2022/05/08 03:06:17;;;;;;;4.97;2.10;;;;;;;13.43;47.53;100847.12;1788270;80;21027;-56
2022/05/08 03:08:46;;;;;;;4.55;2.00;;;;;;;13.37;47.60;100851.22;1787822;80;21015;-56
2022/05/08 03:11:27;;;;;;;7.72;2.55;;;;;;;13.36;47.95;100849.52;1788363;80;21043;-55
2022/05/08 03:13:57;;;;;;;7.67;2.80;;;;;;;13.35;47.92;100852.80;1788197;80;21451;-57
2022/05/08 03:16:30;;;;;;;7.00;2.20;;;;;;;13.33;47.96;100859.03;1787862;80;20991;-56
2022/05/08 03:18:59;;;;;;;6.70;2.50;;;;;;;13.31;48.19;100855.11;1788317;80;21499;-57
2022/05/08 03:21:28;;;;;;;3.95;2.00;;;;;;;13.30;48.57;100855.31;1788503;80;21039;-56
2022/05/08 03:23:57;;;;;;;4.35;2.50;;;;;;;13.27;48.87;100861.23;1788286;80;21043;-56
2022/05/08 03:26:30;;;;;;;5.70;2.27;;;;;;;13.25;49.09;100866.09;1787949;80;21015;-57
2022/05/08 03:28:59;;;;;;;9.70;2.50;;;;;;;13.22;49.26;100874.75;1788159;80;21475;-56
2022/05/08 03:31:29;;;;;;;4.50;2.52;;;;;;;13.17;49.35;100873.14;1788184;80;21011;-56
2022/05/08 03:33:58;;;;;;;6.42;2.22;;;;;;;13.15;49.56;100869.70;1788305;80;21424;-56
2022/05/08 03:36:27;;;;;;;4.45;2.10;;;;;;;13.18;49.63;100880.34;1788308;80;21055;-57
2022/05/08 03:38:56;;;;;;;4.72;2.27;;;;;;;13.22;49.31;100878.88;1787978;79;21401;-56
2022/05/08 03:41:26;;;;;;;4.28;1.95;;;;;;;13.27;49.17;100876.37;1788160;80;21004;-57
2022/05/08 03:43:55;;;;;;;4.03;2.10;;;;;;;13.33;48.96;100880.53;1788154;80;21059;-56
2022/05/08 03:46:25;;;;;;;6.10;2.20;;;;;;;13.42;48.89;100877.60;1788332;80;21051;-57
2022/05/08 03:48:55;;;;;;;5.28;2.22;;;;;;;13.50;49.11;100876.05;1788374;80;21047;-57
2022/05/08 03:51:26;;;;;;;5.40;2.55;;;;;;;13.57;48.73;100873.64;1788174;80;21040;-57
2022/05/08 03:53:55;;;;;;;9.35;2.65;;;;;;;13.64;48.26;100869.02;1788174;79;21051;-57
2022/05/08 03:56:27;;;;;;;4.08;2.37;;;;;;;13.75;47.65;100866.75;1707145;84;21110;-55
2022/05/08 03:58:56;;;;;;;6.08;2.45;;;;;;;13.87;46.93;100874.73;1706081;84;21078;-57
2022/05/08 04:01:26;;;;;;;4.65;2.02;;;;;;;13.97;46.56;100865.53;1701793;84;21030;-55
2022/05/08 04:03:55;;;;;;;5.78;2.30;;;;;;;14.07;46.22;100865.98;1701858;83;21063;-62
2022/05/08 04:06:24;;;;;;;4.62;2.20;;;;;;;14.18;45.86;100861.23;1701634;84;21093;-56
2022/05/08 04:08:53;;;;;;;5.95;2.40;;;;;;;14.28;45.70;100864.41;1701764;83;21036;-56
2022/05/08 04:11:22;;;;;;;5.40;2.40;;;;;;;14.37;45.43;100865.09;1701704;84;21036;-57
2022/05/08 04:13:52;;;;;;;4.08;2.20;;;;;;;14.45;45.37;100871.80;1701649;84;21945;-56
2022/05/08 04:16:21;;;;;;;7.33;2.70;;;;;;;14.52;45.34;100869.05;1701825;84;21102;-55
2022/05/08 04:18:51;;;;;;;5.37;2.75;;;;;;;14.57;45.05;100868.73;1701797;84;21036;-57
2022/05/08 04:21:20;;;;;;;6.87;2.47;;;;;;;14.65;45.06;100873.71;1748319;81;21032;-56
2022/05/08 04:26:38;;;;;;;4.03;2.45;;;;;;;14.78;44.91;100876.46;1774547;79;21036;-56
2022/05/08 04:29:07;;;;;;;5.58;2.80;;;;;;;14.86;44.93;100882.61;1774505;81;21494;-57
2022/05/08 04:31:36;;;;;;;5.08;2.35;;;;;;;14.89;44.74;100879.42;1774521;79;21071;-55
2022/05/08 04:34:05;;;;;;;7.30;3.27;;;;;;;14.97;44.68;100881.14;1774370;81;21028;-55
2022/05/08 04:36:36;;;;;;;5.67;2.60;;;;;;;15.03;44.64;100880.27;1774373;80;21517;-56
2022/05/08 04:39:08;;;;;;;5.10;2.95;;;;;;;15.10;44.72;100883.02;1774386;81;21028;-57
2022/05/08 04:41:36;;;;;;;8.60;3.85;;;;;;;15.15;44.66;100877.70;1774235;81;21032;-58
2022/05/08 04:44:05;;;;;;;9.10;3.50;;;;;;;15.22;44.38;100885.44;1774233;81;21526;-57
2022/05/08 04:46:34;;;;;;;28.70;12.15;;;;;;;15.28;44.35;100887.86;1774580;81;20961;-55
2022/05/08 04:49:05;;;;;;;27.90;12.45;;;;;;;15.34;44.35;100883.70;1774365;81;21013;-57
2022/05/08 04:51:36;;;;;;;31.68;15.43;;;;;;;15.40;44.26;100888.35;1774465;81;21448;-55
2022/05/08 04:54:05;;;;;;;28.90;13.25;;;;;;;15.48;44.23;100883.12;1774695;81;21025;-57
2022/05/08 04:56:35;;;;;;;19.05;9.23;;;;;;;15.54;44.20;100879.48;1774401;81;21932;-56
2022/05/08 04:59:04;;;;;;;17.95;7.37;;;;;;;15.61;44.08;100877.61;1775255;80;21043;-56
2022/05/08 05:01:36;;;;;;;8.68;5.00;;;;;;;15.66;43.98;100879.71;1788440;80;21002;-57
2022/05/08 05:04:05;;;;;;;8.20;4.10;;;;;;;15.71;43.91;100880.75;1788450;80;21079;-56
2022/05/08 05:06:36;;;;;;;5.28;3.30;;;;;;;15.76;43.79;100882.84;1788147;80;21450;-57
2022/05/08 05:09:04;;;;;;;7.10;3.15;;;;;;;15.81;43.54;100879.74;1788247;80;21481;-57
2022/05/08 05:11:33;;;;;;;11.73;3.42;;;;;;;15.88;43.60;100880.23;1788291;80;21000;-55
2022/05/08 05:14:02;;;;;;;8.03;3.62;;;;;;;15.90;43.41;100885.86;1788431;80;21054;-56
2022/05/08 05:16:31;;;;;;;7.28;3.77;;;;;;;15.92;43.25;100885.64;1788205;79;21000;-56
2022/05/08 05:19:00;;;;;;;10.43;3.17;;;;;;;15.93;43.33;100885.95;1788356;80;21432;-57
2022/05/08 05:21:29;;;;;;;7.80;3.40;;;;;;;15.93;43.38;100884.03;1788535;79;21007;-57
2022/05/08 05:23:58;;;;;;;6.40;3.15;;;;;;;15.95;43.39;100881.90;1788239;80;21015;-55
2022/05/08 05:26:27;;;;;;;8.98;3.60;;;;;;;15.95;43.47;100881.90;1788360;80;21086;-57
2022/05/08 05:28:56;;;;;;;8.70;3.37;;;;;;;15.99;43.52;100885.06;1788354;80;21120;-56
2022/05/08 05:31:26;;;;;;;8.70;3.35;;;;;;;16.00;43.56;100887.61;1788391;79;21427;-57
2022/05/08 05:33:54;;;;;;;9.03;4.28;;;;;;;16.02;43.63;100888.77;1788133;80;21008;-57
2022/05/08 05:36:24;;;;;;;10.28;3.20;;;;;;;16.04;43.67;100888.02;1788264;80;21916;-56
2022/05/08 05:38:53;;;;;;;7.55;3.45;;;;;;;16.06;43.58;100890.87;1788113;80;21443;-56
2022/05/08 05:41:22;;;;;;;6.83;3.58;;;;;;;16.09;43.60;100893.19;1788271;80;21035;-55
2022/05/08 05:43:50;;;;;;;8.35;4.53;;;;;;;16.12;43.54;100888.59;1788167;80;21039;-56
2022/05/08 05:49:07;;;;;;;8.03;3.80;;;;;;;16.27;43.54;100880.02;1788360;80;20960;-57
2022/05/08 05:51:36;;;;;;;7.47;3.62;;;;;;;16.36;43.28;100880.59;1788394;80;20984;-56
2022/05/08 05:54:06;;;;;;;13.05;3.52;;;;;;;16.41;43.13;100890.45;1788273;80;20996;-57
2022/05/08 05:56:37;;;;;;;10.70;4.53;;;;;;;16.45;43.02;100884.78;1788210;80;21062;-55
2022/05/08 05:59:06;;;;;;;9.90;4.28;;;;;;;16.51;42.91;100885.80;1788435;80;20979;-56
2022/05/08 06:01:37;;;;;;;6.25;3.77;;;;;;;16.60;42.84;100890.83;1772938;81;20989;-55
2022/05/08 06:04:06;;;;;;;9.80;3.80;;;;;;;16.71;42.90;100896.20;1774362;81;21044;-56
2022/05/08 06:06:35;;;;;;;9.08;4.10;;;;;;;16.80;42.77;100892.92;1774363;81;21064;-57
2022/05/08 06:09:07;;;;;;;6.12;3.40;;;;;;;16.92;42.60;100893.59;1774448;81;21478;-57
2022/05/08 06:11:36;;;;;;;6.10;3.50;;;;;;;17.00;42.47;100895.53;1774416;81;21048;-56
2022/05/08 06:14:05;;;;;;;9.80;3.95;;;;;;;17.15;42.25;100891.02;1774424;80;21005;-56
2022/05/08 06:16:35;;;;;;;5.83;3.22;;;;;;;17.25;41.95;100896.88;1774543;81;21063;-56
2022/05/08 06:19:05;;;;;;;9.08;3.90;;;;;;;17.34;41.63;100898.27;1774660;81;21091;-57
2022/05/08 06:21:35;;;;;;;8.00;3.62;;;;;;;17.43;41.09;100890.50;1774617;81;21009;-56
2022/05/08 06:24:05;;;;;;;8.15;3.85;;;;;;;17.46;41.18;100897.50;1774628;81;21087;-57
2022/05/08 06:26:35;;;;;;;8.48;4.05;;;;;;;17.49;41.24;100894.27;1774731;81;21051;-57
2022/05/08 06:29:03;;;;;;;6.67;3.72;;;;;;;17.55;41.46;100897.50;1701742;84;21543;-57
2022/05/08 06:31:32;;;;;;;7.75;3.67;;;;;;;17.63;41.17;100898.60;1701634;84;21095;-57
2022/05/08 06:34:02;;;;;;;6.50;3.40;;;;;;;17.68;41.07;100897.40;1701666;84;21084;-55
2022/05/08 06:36:32;;;;;;;8.38;3.67;;;;;;;17.74;40.97;100899.24;1701699;84;21136;-56
2022/05/08 06:39:01;;;;;;;8.75;4.03;;;;;;;17.77;40.78;100892.38;1701945;84;21047;-56
2022/05/08 06:41:30;;;;;;;10.08;4.75;;;;;;;17.77;40.90;100887.69;1701792;84;21091;-58
2022/05/08 06:43:59;;;;;;;8.00;4.70;;;;;;;17.78;41.03;100892.69;1701644;84;21111;-57
2022/05/08 06:46:31;;;;;;;7.67;3.62;;;;;;;17.84;40.89;100891.75;1715898;81;21012;-57
2022/05/08 06:48:59;;;;;;;13.40;3.85;;;;;;;17.90;40.91;100886.12;1774272;81;21040;-57
2022/05/08 06:51:28;;;;;;;8.43;3.98;;;;;;;17.98;40.65;100885.80;1774601;81;20965;-57
2022/05/08 06:54:01;;;;;;;11.38;4.37;;;;;;;18.09;40.24;100884.16;1774385;81;21005;-56
2022/05/08 06:56:35;;;;;;;7.58;3.80;;;;;;;18.14;40.21;100888.45;1774392;81;21376;-57
2022/05/08 07:01:57;;;;;;;7.37;4.03;;;;;;;18.16;40.16;100889.60;1749065;82;21010;-57
2022/05/08 07:04:29;;;;;;;6.83;3.77;;;;;;;18.10;40.40;100885.00;1713316;84;21051;-57
2022/05/08 07:06:58;;;;;;;8.28;3.92;;;;;;;18.08;40.58;100888.55;1713354;84;21076;-60
2022/05/08 07:09:28;;;;;;;9.23;3.92;;;;;;;18.04;40.57;100885.40;1688207;85;21448;-57
2022/05/08 07:11:57;;;;;;;10.03;3.90;;;;;;;18.06;40.63;100891.55;1749027;82;21050;-56
2022/05/08 07:14:28;;;;;;;7.15;3.85;;;;;;;18.09;40.71;100891.63;1749046;82;21014;-57
2022/05/08 07:16:57;;;;;;;8.38;4.05;;;;;;;18.14;40.40;100886.22;1749099;82;21878;-59
2022/05/08 07:19:27;;;;;;;11.30;4.10;;;;;;;18.21;40.43;100889.23;1713697;84;21000;-56
2022/05/08 07:21:56;;;;;;;7.20;4.10;;;;;;;18.37;40.31;100884.94;1688282;85;21040;-57
2022/05/08 07:24:24;;;;;;;13.13;5.05;;;;;;;18.61;39.86;100883.93;1748948;82;21054;-62
2022/05/08 07:26:53;;;;;;;9.93;4.83;;;;;;;18.89;39.78;100883.81;1657616;86;21118;-57
2022/05/08 07:29:23;;;;;;;10.13;4.25;;;;;;;19.28;39.31;100877.52;1657765;86;21019;-56
2022/05/08 07:31:53;;;;;;;10.03;4.42;;;;;;;19.81;38.37;100882.05;1657449;86;21049;-57
2022/05/08 07:37:10;;;;;;;8.93;4.08;;;;;;;20.38;36.66;100875.09;1658043;86;21075;-57
2022/05/08 07:39:39;;;;;;;13.60;4.42;;;;;;;20.42;36.73;100882.42;1657668;86;21106;-57
2022/05/08 07:42:09;;;;;;;10.05;4.40;;;;;;;20.49;36.76;100871.98;1657359;86;21542;-57
2022/05/08 07:44:39;;;;;;;8.85;4.20;;;;;;;20.58;36.56;100882.44;1687602;82;21123;-56
2022/05/08 07:47:08;;;;;;;10.85;4.20;;;;;;;20.69;36.21;100877.89;1749108;82;21023;-57
2022/05/08 07:49:38;;;;;;;10.98;4.47;;;;;;;20.85;35.88;100875.69;1749116;82;21458;-56
2022/05/08 07:52:08;;;;;;;8.98;4.17;;;;;;;21.04;35.27;100889.34;1713402;83;21063;-57
2022/05/08 07:54:39;;;;;;;7.83;3.85;;;;;;;21.17;34.79;100887.59;1711820;83;21456;-57
2022/05/08 07:57:08;;;;;;;9.68;4.50;;;;;;;21.19;34.10;100886.78;1713526;84;21059;-58
2022/05/08 07:59:37;;;;;;;9.15;4.20;;;;;;;21.10;34.39;100891.11;1713170;84;21481;-58
2022/05/08 08:02:08;;;;;;;8.83;4.22;;;;;;;20.98;34.65;100891.75;1732363;82;21060;-57
2022/05/08 08:04:38;;;;;;;13.18;4.40;;;;;;;20.90;35.26;100891.63;1780005;79;21042;-57
2022/05/08 08:07:08;;;;;;;9.40;4.80;;;;;;;20.77;34.87;100894.73;1779741;80;21431;-57
2022/05/08 08:09:36;;;;;;;7.75;4.47;;;;;;;20.61;35.10;100891.39;1779732;80;21101;-57
2022/05/08 08:12:07;;;;;;;12.03;4.45;;;;;;;20.46;35.54;100892.81;1779626;80;21426;-58
2022/05/08 08:14:36;;;;;;;11.12;4.20;;;;;;;20.38;35.83;100894.58;1779769;80;21029;-57
2022/05/08 08:17:08;;;;;;;9.65;4.70;;;;;;;20.34;35.97;100891.16;1776887;80;21466;-58
2022/05/08 08:19:36;;;;;;;9.13;4.30;;;;;;;20.38;35.90;100890.41;1779739;80;21053;-58
2022/05/08 08:22:06;;;;;;;10.45;4.33;;;;;;;20.62;35.69;100888.35;1779754;80;21415;-59
2022/05/08 08:24:36;;;;;;;9.48;4.35;;;;;;;20.89;35.29;100892.73;1779861;80;21082;-58
2022/05/08 08:27:07;;;;;;;8.20;3.98;;;;;;;21.05;34.50;100895.21;1779766;80;21022;-58
2022/05/08 08:29:36;;;;;;;9.23;4.00;;;;;;;21.02;34.40;100888.20;1779660;80;21038;-57
2022/05/08 08:32:06;;;;;;;9.73;4.37;;;;;;;20.96;34.44;100893.41;1779764;79;21002;-57
2022/05/08 08:34:35;;;;;;;8.03;4.10;;;;;;;20.94;34.54;100888.63;1779760;80;21470;-57
2022/05/08 08:37:04;;;;;;;10.32;3.98;;;;;;;20.93;34.65;100889.73;1779843;80;21460;-57
2022/05/08 08:39:33;;;;;;;8.45;4.12;;;;;;;20.92;34.61;100885.26;1780120;80;21061;-58
2022/05/08 08:42:29;;;;;;;9.45;3.80;;;;;;;20.91;34.77;100882.17;1779802;80;21470;-57
2022/05/08 08:47:53;;;;;;;7.30;4.20;;;;;;;21.09;35.05;100877.72;1779845;80;21654;-57
2022/05/08 08:50:24;;;;;;;8.90;4.20;;;;;;;21.37;34.77;100871.19;1780244;80;21010;-56
2022/05/08 08:52:57;;;;;;;9.30;4.28;;;;;;;21.72;33.89;100869.45;1779893;80;20994;-56
2022/05/08 08:55:26;;;;;;;11.03;4.28;;;;;;;22.16;33.19;100873.64;1780098;80;21430;-58
2022/05/08 08:57:55;;;;;;;10.90;4.97;;;;;;;22.63;31.89;100865.98;1779700;80;21026;-59
2022/05/08 09:00:25;;;;;;;8.45;4.25;;;;;;;22.95;31.38;100872.45;1782244;79;20994;-63
2022/05/08 09:02:55;;;;;;;7.83;4.00;;;;;;;23.22;30.81;100866.77;1805860;79;21016;-57
2022/05/08 09:05:26;;;;;;;6.62;3.95;;;;;;;23.33;30.68;100863.47;1805867;79;21179;-58
2022/05/08 09:07:58;;;;;;;7.80;4.00;;;;;;;23.44;30.50;100859.65;1806003;79;20976;-57
2022/05/08 09:10:35;;;;;;;9.55;4.08;;;;;;;23.56;30.03;100863.66;1806229;79;21059;-58
2022/05/08 09:13:02;;;;;;;7.97;4.37;;;;;;;23.59;30.08;100851.36;1805314;79;21478;-57
2022/05/08 09:15:35;;;;;;;7.22;4.17;;;;;;;23.60;30.21;100860.59;1805008;79;21436;-57
2022/05/08 09:18:07;;;;;;;12.63;4.92;;;;;;;23.63;29.31;100857.25;1806092;79;21040;-56
2022/05/08 09:20:43;;;;;;;9.48;4.40;;;;;;;23.60;28.92;100853.05;1805935;79;20988;-58
2022/05/08 09:23:20;;;;;;;8.35;4.10;;;;;;;23.59;29.14;100854.72;1805728;79;21737;-57
2022/05/08 09:26:03;;;;;;;8.05;4.28;;;;;;;23.52;29.35;100844.30;1806242;79;21011;-59
2022/05/08 09:28:46;;;;;;;8.98;4.42;;;;;;;23.46;29.80;100846.79;1805557;79;21000;-58
2022/05/08 09:31:26;;;;;;;9.55;4.60;;;;;;;23.40;29.66;100845.89;1805738;79;21150;-57
2022/05/08 09:33:55;;;;;;;8.68;4.15;;;;;;;23.40;29.29;100852.88;1783705;79;21040;-57
2022/05/08 09:36:25;;;;;;;7.00;3.87;;;;;;;23.37;29.65;100847.83;1758901;79;21472;-59
2022/05/08 09:38:59;;;;;;;7.53;4.40;;;;;;;23.29;29.10;100841.36;1806152;79;21065;-61
2022/05/08 09:41:31;;;;;;;7.83;4.25;;;;;;;23.21;29.17;100843.27;1805955;79;21051;-57
2022/05/08 09:44:14;;;;;;;10.95;3.87;;;;;;;23.17;29.10;100844.37;1805943;79;21091;-57
2022/05/08 09:46:48;;;;;;;8.00;3.60;;;;;;;23.17;29.19;100844.92;1805929;79;21003;-61
2022/05/08 09:49:22;;;;;;;6.60;3.65;;;;;;;23.17;28.42;100843.52;1806310;79;21007;-58
2022/05/08 09:51:51;;;;;;;7.42;3.95;;;;;;;23.09;28.46;100847.67;1806127;79;21012;-57
2022/05/08 09:54:21;;;;;;;6.80;3.92;;;;;;;23.03;28.71;100850.15;1805926;79;21007;-56
2022/05/08 09:56:50;;;;;;;10.55;3.83;;;;;;;23.02;28.56;100852.66;1805935;79;21090;-57
2022/05/08 09:59:20;;;;;;;8.58;3.92;;;;;;;22.99;28.72;100857.39;1805959;79;20996;-60
2022/05/08 10:01:49;;;;;;;10.40;3.90;;;;;;;22.97;28.82;100850.67;1810584;79;21027;-57
2022/05/08 10:04:18;;;;;;;8.75;3.90;;;;;;;22.94;28.55;100833.05;1814584;79;20980;-56
2022/05/08 10:06:46;;;;;;;10.35;4.53;;;;;;;22.89;28.88;100828.81;1814293;79;21039;-58
2022/05/08 10:14:55;;;;;;;8.33;4.50;;;;;;;22.85;29.70;100823.48;1725390;82;21055;-56
2022/05/08 10:17:28;;;;;;;8.65;4.35;;;;;;;22.91;29.75;100833.58;1745517;82;21027;-56
2022/05/08 10:19:58;;;;;;;5.92;3.90;;;;;;;22.91;29.69;100830.78;1745448;82;21114;-56
2022/05/08 10:22:48;;;;;;;8.60;3.98;;;;;;;22.90;29.76;100822.12;1745675;82;21027;-54
2022/05/08 10:25:17;;;;;;;8.28;4.30;;;;;;;22.91;29.48;100813.17;1745414;82;21537;-55
2022/05/08 10:28:07;;;;;;;7.65;4.42;;;;;;;22.99;29.28;100820.50;1745231;82;21086;-55
2022/05/08 10:30:36;;;;;;;5.47;3.80;;;;;;;23.11;29.19;100823.64;1745406;82;21011;-56
2022/05/08 10:33:05;;;;;;;5.87;3.62;;;;;;;23.17;28.84;100819.20;1780083;79;21063;-55
2022/05/08 10:35:35;;;;;;;8.95;3.83;;;;;;;23.13;29.04;100811.62;1814710;79;21046;-56
2022/05/08 10:38:12;;;;;;;8.73;4.22;;;;;;;23.11;29.46;100813.86;1814416;79;21486;-55
2022/05/08 10:40:41;;;;;;;7.28;3.80;;;;;;;23.12;28.94;100801.56;1814444;79;21012;-56
2022/05/08 10:43:25;;;;;;;6.12;3.90;;;;;;;23.04;28.83;100802.36;1814513;79;21070;-55
2022/05/08 10:45:50;;;;;;;7.97;4.12;;;;;;;22.96;28.85;100795.88;1814263;79;21090;-56
2022/05/08 10:48:20;;;;;;;11.18;4.80;;;;;;;22.86;29.08;100801.41;1814560;79;21047;-54
2022/05/08 10:50:54;;;;;;;10.78;4.40;;;;;;;22.77;29.36;100799.64;1814487;79;21043;-56
2022/05/08 10:53:27;;;;;;;7.50;3.92;;;;;;;22.68;29.70;100796.19;1814585;79;21043;-57
2022/05/08 10:56:09;;;;;;;7.65;4.25;;;;;;;22.63;29.84;100793.36;1807228;79;21465;-55
2022/05/08 10:58:40;;;;;;;9.38;4.20;;;;;;;22.62;29.87;100788.33;1784343;79;21048;-57
2022/05/08 11:01:09;;;;;;;7.30;4.03;;;;;;;22.60;30.19;100775.19;1790134;79;21137;-58
2022/05/08 11:03:39;;;;;;;8.63;4.08;;;;;;;22.60;30.58;100781.33;1774573;79;21422;-54
2022/05/08 11:06:08;;;;;;;9.20;4.17;;;;;;;22.58;30.85;100775.17;1774155;81;21001;-58
2022/05/08 11:08:38;;;;;;;7.47;3.80;;;;;;;22.56;30.55;100775.98;1774617;80;21057;-55
2022/05/08 11:11:10;;;;;;;12.37;4.50;;;;;;;22.54;30.23;100771.23;1774664;80;21104;-55
2022/05/08 11:13:46;;;;;;;9.28;4.20;;;;;;;22.50;29.56;100768.68;1774596;81;21100;-55
2022/05/08 11:16:34;;;;;;;7.95;4.25;;;;;;;22.41;29.16;100768.34;1774583;81;21513;-55
2022/05/08 11:19:01;;;;;;;9.40;3.83;;;;;;;22.32;29.35;100766.59;1774344;81;21088;-56
2022/05/08 11:21:31;;;;;;;7.37;4.20;;;;;;;22.28;29.38;100759.86;1774515;81;21029;-57
2022/05/08 11:24:00;;;;;;;10.20;4.05;;;;;;;22.27;29.48;100753.98;1780703;79;21004;-56
2022/05/08 11:26:32;;;;;;;11.20;4.12;;;;;;;22.29;29.63;100750.93;1782050;79;21288;-58
2022/05/08 11:29:02;;;;;;;7.87;4.05;;;;;;;22.33;29.57;100754.31;1765820;81;21456;-57
2022/05/08 11:31:35;;;;;;;5.67;4.10;;;;;;;22.35;28.96;100738.69;1799445;79;21047;-56
2022/05/08 11:36:55;;;;;;;8.30;4.55;;;;;;;22.36;29.58;100743.16;1727586;81;21023;-54
2022/05/08 11:39:24;;;;;;;7.00;3.72;;;;;;;22.37;29.45;100747.64;1774294;81;21458;-56
2022/05/08 11:41:54;;;;;;;6.37;3.90;;;;;;;22.34;29.45;100743.44;1766344;81;21044;-55
2022/05/08 11:44:27;;;;;;;8.13;4.05;;;;;;;22.33;29.65;100744.55;1805981;79;21085;-55
2022/05/08 11:46:57;;;;;;;9.30;4.15;;;;;;;22.34;29.50;100740.64;1806062;79;21027;-55
2022/05/08 11:49:29;;;;;;;5.80;3.90;;;;;;;22.34;29.28;100735.06;1805878;79;21099;-56
2022/05/08 11:52:01;;;;;;;11.93;4.37;;;;;;;22.33;29.39;100732.53;1805910;79;21475;-56
2022/05/08 11:54:36;;;;;;;9.15;4.28;;;;;;;22.36;29.49;100732.00;1805919;79;21063;-55
2022/05/08 11:57:19;;;;;;;6.67;3.83;;;;;;;22.37;29.43;100727.55;1800173;79;21063;-57
2022/05/08 11:59:58;;;;;;;7.35;3.75;;;;;;;22.43;29.18;100720.04;1737269;82;21109;-55
2022/05/08 12:02:46;;;;;;;9.25;3.75;;;;;;;22.53;28.87;100710.89;1735851;82;21104;-55
2022/05/08 12:05:21;;;;;;;7.00;4.08;;;;;;;22.62;28.71;100717.09;1751298;82;21065;-56